Terminal Aerodrome Forecast
Issued by NWS

Home | Current Version | Previous Version | Text Only | Print | Product List | Glossary On
Versions: 1 2 3 4 5 6 7 8 9 10 11 12 13 14 15 16 17 18
000
FTAK31 PAJN 292327
TAFAKT
TAF
PAKT 292327Z 3000/3024 12009KT P6SM -SHRA BKN020 BKN035 OVC050
      TEMPO 3000/3004 SCT020 BKN035 BKN050
     FM300600 15007KT P6SM -RA BKN012 OVC025
     FM301500 15014KT 5SM -RA BR OVC012
      AMD LTD TO CLD VIS AND WIND 3006/3015=

USA.gov is the U.S. government's official web portal to all federal, state and local government web resources and services.